Ashintilly, Georgia
Current Conditions -  °F | °C
As of 11:35 PM on Friday 28 Nov 2014 (Local Time) from KBQK Reporting Station
Overcast Overcast  
Wind Chill: 34°   Ceiling: 700
Heat Index: 34°   Visibility: 1.5mi
Dew Point: 32°   Wind: 0mph
Humidity: 93%   Direction: NA
Pressure: 30.35"   Gusts: NA
Location:  31.5632°N, 81.4638°W
Report Text: KBQK 290435Z AUTO 00000KT 1 1/2SM VV007 01/00 A3035 RMK AO1
Loading
Personal Weather Stations






























Interactive Weather Map New forecast layout! Learn more

10-Day Weather Forecast

Advertisements
Track Severe Weather on mobile